sensor_id;sensor_type;location;lat;lon;timestamp;temperature;humidity
10417;DHT22;62605;49.432;8.680;2023-06-22T00:00:22;22.90;1.00
10417;DHT22;62605;49.432;8.680;2023-06-22T00:03:09;23.00;1.00
10417;DHT22;62605;49.432;8.680;2023-06-22T00:06:06;23.00;1.00
10417;DHT22;62605;49.432;8.680;2023-06-22T00:09:01;23.00;1.00
10417;DHT22;62605;49.432;8.680;2023-06-22T00:12:04;23.10;1.00
10417;DHT22;62605;49.432;8.680;2023-06-22T00:15:00;23.20;1.00
10417;DHT22;62605;49.432;8.680;2023-06-22T00:18:13;23.30;1.00
10417;DHT22;62605;49.432;8.680;2023-06-22T00:20:43;23.30;99.90
10417;DHT22;62605;49.432;8.680;2023-06-22T00:26:31;23.40;99.90
10417;DHT22;62605;49.432;8.680;2023-06-22T00:30:07;23.40;99.90
10417;DHT22;62605;49.432;8.680;2023-06-22T00:32:30;23.40;99.90
10417;DHT22;62605;49.432;8.680;2023-06-22T00:34:58;23.40;99.90
10417;DHT22;62605;49.432;8.680;2023-06-22T00:37:36;23.20;99.90
10417;DHT22;62605;49.432;8.680;2023-06-22T00:40:05;23.20;1.00
10417;DHT22;62605;49.432;8.680;2023-06-22T00:42:39;23.00;1.00
10417;DHT22;62605;49.432;8.680;2023-06-22T00:45:11;22.80;1.00
10417;DHT22;62605;49.432;8.680;2023-06-22T00:47:44;22.70;1.00
10417;DHT22;62605;49.432;8.680;2023-06-22T00:50:43;22.70;1.00
10417;DHT22;62605;49.432;8.680;2023-06-22T00:53:35;22.80;1.00
10417;DHT22;62605;49.432;8.680;2023-06-22T00:58:39;22.90;1.00
10417;DHT22;62605;49.432;8.680;2023-06-22T01:01:08;22.90;1.00
10417;DHT22;62605;49.432;8.680;2023-06-22T01:06:56;22.80;1.00
10417;DHT22;62605;49.432;8.680;2023-06-22T01:09:31;22.40;99.90
10417;DHT22;62605;49.432;8.680;2023-06-22T01:12:06;21.70;99.90
10417;DHT22;62605;49.432;8.680;2023-06-22T01:14:41;21.50;1.00
10417;DHT22;62605;49.432;8.680;2023-06-22T01:17:17;21.50;1.00
10417;DHT22;62605;49.432;8.680;2023-06-22T01:20:01;21.40;99.90
10417;DHT22;62605;49.432;8.680;2023-06-22T01:22:39;21.20;99.90
10417;DHT22;62605;49.432;8.680;2023-06-22T01:25:16;21.20;99.90
10417;DHT22;62605;49.432;8.680;2023-06-22T01:27:56;21.40;99.90
10417;DHT22;62605;49.432;8.680;2023-06-22T01:30:33;21.50;99.90
10417;DHT22;62605;49.432;8.680;2023-06-22T01:33:03;21.20;99.90
10417;DHT22;62605;49.432;8.680;2023-06-22T01:35:33;21.10;99.90
10417;DHT22;62605;49.432;8.680;2023-06-22T01:38:02;21.00;99.90
10417;DHT22;62605;49.432;8.680;2023-06-22T01:40:31;21.00;99.90
10417;DHT22;62605;49.432;8.680;2023-06-22T01:43:00;21.10;99.90
10417;DHT22;62605;49.432;8.680;2023-06-22T01:45:29;21.20;99.90
10417;DHT22;62605;49.432;8.680;2023-06-22T01:48:00;21.20;99.90
10417;DHT22;62605;49.432;8.680;2023-06-22T01:50:29;21.00;99.90
10417;DHT22;62605;49.432;8.680;2023-06-22T01:52:57;20.90;99.90
10417;DHT22;62605;49.432;8.680;2023-06-22T01:55:25;21.10;99.90
10417;DHT22;62605;49.432;8.680;2023-06-22T01:57:54;21.00;99.90
10417;DHT22;62605;49.432;8.680;2023-06-22T02:00:25;20.90;99.90
10417;DHT22;62605;49.432;8.680;2023-06-22T02:03:05;20.80;99.90
10417;DHT22;62605;49.432;8.680;2023-06-22T02:05:38;20.60;99.90
10417;DHT22;62605;49.432;8.680;2023-06-22T02:08:11;20.50;99.90
10417;DHT22;62605;49.432;8.680;2023-06-22T02:10:43;20.50;99.90
10417;DHT22;62605;49.432;8.680;2023-06-22T02:13:14;20.40;99.90
10417;DHT22;62605;49.432;8.680;2023-06-22T02:15:46;20.40;99.90
10417;DHT22;62605;49.432;8.680;2023-06-22T02:18:17;20.30;99.90
10417;DHT22;62605;49.432;8.680;2023-06-22T02:20:46;20.30;99.90
10417;DHT22;62605;49.432;8.680;2023-06-22T02:23:16;20.30;99.90
10417;DHT22;62605;49.432;8.680;2023-06-22T02:25:43;20.20;99.90
10417;DHT22;62605;49.432;8.680;2023-06-22T02:28:14;20.20;99.90
10417;DHT22;62605;49.432;8.680;2023-06-22T02:30:42;20.10;99.90
10417;DHT22;62605;49.432;8.680;2023-06-22T02:33:10;20.10;99.90
10417;DHT22;62605;49.432;8.680;2023-06-22T02:35:40;20.10;99.90
10417;DHT22;62605;49.432;8.680;2023-06-22T02:38:12;20.10;99.90
10417;DHT22;62605;49.432;8.680;2023-06-22T02:40:40;20.10;99.90
10417;DHT22;62605;49.432;8.680;2023-06-22T02:43:08;20.10;99.90
10417;DHT22;62605;49.432;8.680;2023-06-22T02:45:37;20.20;99.90
10417;DHT22;62605;49.432;8.680;2023-06-22T02:48:06;20.10;99.90
10417;DHT22;62605;49.432;8.680;2023-06-22T02:50:34;20.10;99.90
10417;DHT22;62605;49.432;8.680;2023-06-22T02:53:05;20.10;99.90
10417;DHT22;62605;49.432;8.680;2023-06-22T02:55:33;20.10;99.90
10417;DHT22;62605;49.432;8.680;2023-06-22T02:58:02;20.00;99.90
10417;DHT22;62605;49.432;8.680;2023-06-22T03:00:31;20.00;99.90
10417;DHT22;62605;49.432;8.680;2023-06-22T03:02:59;19.90;99.90
10417;DHT22;62605;49.432;8.680;2023-06-22T03:05:27;19.90;99.90
10417;DHT22;62605;49.432;8.680;2023-06-22T03:07:55;20.00;99.90
10417;DHT22;62605;49.432;8.680;2023-06-22T03:10:24;20.00;99.90
10417;DHT22;62605;49.432;8.680;2023-06-22T03:12:53;20.00;99.90
10417;DHT22;62605;49.432;8.680;2023-06-22T03:15:21;20.00;99.90
10417;DHT22;62605;49.432;8.680;2023-06-22T03:17:49;20.10;99.90
10417;DHT22;62605;49.432;8.680;2023-06-22T03:20:18;20.10;99.90
10417;DHT22;62605;49.432;8.680;2023-06-22T03:22:48;20.00;99.90
10417;DHT22;62605;49.432;8.680;2023-06-22T03:25:16;19.90;99.90
10417;DHT22;62605;49.432;8.680;2023-06-22T03:27:46;19.90;99.90
10417;DHT22;62605;49.432;8.680;2023-06-22T03:30:15;19.80;99.90
10417;DHT22;62605;49.432;8.680;2023-06-22T03:32:43;19.80;99.90
10417;DHT22;62605;49.432;8.680;2023-06-22T03:35:15;19.70;99.90
10417;DHT22;62605;49.432;8.680;2023-06-22T03:37:43;19.60;99.90
10417;DHT22;62605;49.432;8.680;2023-06-22T03:40:12;19.70;99.90
10417;DHT22;62605;49.432;8.680;2023-06-22T03:42:41;19.80;99.90
10417;DHT22;62605;49.432;8.680;2023-06-22T03:45:12;19.90;99.90
10417;DHT22;62605;49.432;8.680;2023-06-22T03:47:40;20.00;99.90
10417;DHT22;62605;49.432;8.680;2023-06-22T03:50:14;20.20;99.90
10417;DHT22;62605;49.432;8.680;2023-06-22T03:52:43;20.30;99.90
10417;DHT22;62605;49.432;8.680;2023-06-22T03:55:12;20.30;99.90
10417;DHT22;62605;49.432;8.680;2023-06-22T03:57:43;20.30;99.90
10417;DHT22;62605;49.432;8.680;2023-06-22T04:00:16;20.20;99.90
10417;DHT22;62605;49.432;8.680;2023-06-22T04:02:44;20.20;99.90
10417;DHT22;62605;49.432;8.680;2023-06-22T04:17:37;20.30;99.90
10417;DHT22;62605;49.432;8.680;2023-06-22T04:20:19;20.40;99.90
10417;DHT22;62605;49.432;8.680;2023-06-22T04:23:05;20.30;99.90
10417;DHT22;62605;49.432;8.680;2023-06-22T04:25:34;20.30;99.90
10417;DHT22;62605;49.432;8.680;2023-06-22T04:28:19;20.50;99.90
10417;DHT22;62605;49.432;8.680;2023-06-22T04:40:01;21.00;99.90
10417;DHT22;62605;49.432;8.680;2023-06-22T04:42:58;21.20;99.90
10417;DHT22;62605;49.432;8.680;2023-06-22T04:52:04;21.90;99.90
10417;DHT22;62605;49.432;8.680;2023-06-22T05:03:18;21.90;99.90
10417;DHT22;62605;49.432;8.680;2023-06-22T05:06:05;22.00;99.90
10417;DHT22;62605;49.432;8.680;2023-06-22T05:08:37;22.20;99.90
10417;DHT22;62605;49.432;8.680;2023-06-22T05:11:05;22.30;99.90
10417;DHT22;62605;49.432;8.680;2023-06-22T05:13:32;22.60;99.90
10417;DHT22;62605;49.432;8.680;2023-06-22T05:15:59;22.70;99.90
10417;DHT22;62605;49.432;8.680;2023-06-22T05:18:30;22.80;99.90
10417;DHT22;62605;49.432;8.680;2023-06-22T05:20:57;22.80;99.90
10417;DHT22;62605;49.432;8.680;2023-06-22T05:23:25;22.90;99.90
10417;DHT22;62605;49.432;8.680;2023-06-22T05:25:52;23.00;99.90
10417;DHT22;62605;49.432;8.680;2023-06-22T05:28:20;23.00;99.90
10417;DHT22;62605;49.432;8.680;2023-06-22T05:30:48;23.00;99.90
10417;DHT22;62605;49.432;8.680;2023-06-22T05:33:15;23.10;99.90
10417;DHT22;62605;49.432;8.680;2023-06-22T05:35:44;23.10;99.90
10417;DHT22;62605;49.432;8.680;2023-06-22T05:38:13;23.20;99.90
10417;DHT22;62605;49.432;8.680;2023-06-22T05:40:41;23.30;99.90
10417;DHT22;62605;49.432;8.680;2023-06-22T05:43:09;23.30;99.90
10417;DHT22;62605;49.432;8.680;2023-06-22T05:45:37;23.40;99.90
10417;DHT22;62605;49.432;8.680;2023-06-22T05:48:05;23.40;99.90
10417;DHT22;62605;49.432;8.680;2023-06-22T05:50:32;23.50;99.90
10417;DHT22;62605;49.432;8.680;2023-06-22T05:53:02;23.60;99.90
10417;DHT22;62605;49.432;8.680;2023-06-22T05:55:29;23.60;99.90
10417;DHT22;62605;49.432;8.680;2023-06-22T05:57:56;23.60;99.90
10417;DHT22;62605;49.432;8.680;2023-06-22T06:00:23;23.70;99.90
10417;DHT22;62605;49.432;8.680;2023-06-22T06:02:50;23.80;99.90
10417;DHT22;62605;49.432;8.680;2023-06-22T06:05:20;23.80;99.90
10417;DHT22;62605;49.432;8.680;2023-06-22T06:07:49;23.90;99.90
10417;DHT22;62605;49.432;8.680;2023-06-22T06:10:18;23.90;99.90
10417;DHT22;62605;49.432;8.680;2023-06-22T06:12:45;23.90;99.90
10417;DHT22;62605;49.432;8.680;2023-06-22T06:15:12;23.90;99.90
10417;DHT22;62605;49.432;8.680;2023-06-22T06:17:46;23.90;99.90
10417;DHT22;62605;49.432;8.680;2023-06-22T06:20:13;24.00;99.90
10417;DHT22;62605;49.432;8.680;2023-06-22T06:22:44;24.10;99.90
10417;DHT22;62605;49.432;8.680;2023-06-22T06:25:12;24.10;99.90
10417;DHT22;62605;49.432;8.680;2023-06-22T06:27:44;24.30;99.90
10417;DHT22;62605;49.432;8.680;2023-06-22T06:30:13;24.40;99.90
10417;DHT22;62605;49.432;8.680;2023-06-22T06:32:41;24.40;99.90
10417;DHT22;62605;49.432;8.680;2023-06-22T06:35:09;24.40;99.90
10417;DHT22;62605;49.432;8.680;2023-06-22T06:37:37;24.50;99.90
10417;DHT22;62605;49.432;8.680;2023-06-22T06:40:06;24.50;99.90
10417;DHT22;62605;49.432;8.680;2023-06-22T06:42:49;24.50;99.90
10417;DHT22;62605;49.432;8.680;2023-06-22T06:45:21;24.60;99.90
10417;DHT22;62605;49.432;8.680;2023-06-22T06:47:49;24.80;99.90
10417;DHT22;62605;49.432;8.680;2023-06-22T06:50:17;24.80;99.90
10417;DHT22;62605;49.432;8.680;2023-06-22T06:52:44;24.60;99.90
10417;DHT22;62605;49.432;8.680;2023-06-22T06:55:12;24.70;99.90
10417;DHT22;62605;49.432;8.680;2023-06-22T06:57:40;24.70;99.90
10417;DHT22;62605;49.432;8.680;2023-06-22T07:00:12;24.90;99.90
10417;DHT22;62605;49.432;8.680;2023-06-22T07:02:43;25.00;99.90
10417;DHT22;62605;49.432;8.680;2023-06-22T07:05:12;25.30;99.90
10417;DHT22;62605;49.432;8.680;2023-06-22T07:07:42;25.30;99.90
10417;DHT22;62605;49.432;8.680;2023-06-22T07:10:13;25.30;99.90
10417;DHT22;62605;49.432;8.680;2023-06-22T07:12:41;25.30;99.90
10417;DHT22;62605;49.432;8.680;2023-06-22T07:15:11;25.50;99.90
10417;DHT22;62605;49.432;8.680;2023-06-22T07:17:39;25.50;99.90
10417;DHT22;62605;49.432;8.680;2023-06-22T07:20:07;25.50;99.90
10417;DHT22;62605;49.432;8.680;2023-06-22T07:22:40;25.70;99.90
10417;DHT22;62605;49.432;8.680;2023-06-22T07:25:13;25.70;51.80
10417;DHT22;62605;49.432;8.680;2023-06-22T07:27:45;25.80;99.90
10417;DHT22;62605;49.432;8.680;2023-06-22T07:30:24;25.90;1.00
10417;DHT22;62605;49.432;8.680;2023-06-22T07:32:52;26.10;1.00
10417;DHT22;62605;49.432;8.680;2023-06-22T07:35:23;26.00;1.00
10417;DHT22;62605;49.432;8.680;2023-06-22T07:37:52;26.20;1.00
10417;DHT22;62605;49.432;8.680;2023-06-22T07:40:26;26.30;1.00
10417;DHT22;62605;49.432;8.680;2023-06-22T07:42:53;26.10;1.00
10417;DHT22;62605;49.432;8.680;2023-06-22T07:45:22;26.20;1.00
10417;DHT22;62605;49.432;8.680;2023-06-22T07:47:50;26.10;1.00
10417;DHT22;62605;49.432;8.680;2023-06-22T07:50:17;26.20;1.00
10417;DHT22;62605;49.432;8.680;2023-06-22T07:52:48;26.40;1.00
10417;DHT22;62605;49.432;8.680;2023-06-22T07:55:16;26.60;1.00
10417;DHT22;62605;49.432;8.680;2023-06-22T07:57:43;26.40;1.00
10417;DHT22;62605;49.432;8.680;2023-06-22T08:00:11;26.80;1.00
10417;DHT22;62605;49.432;8.680;2023-06-22T08:02:43;27.00;1.00
10417;DHT22;62605;49.432;8.680;2023-06-22T08:05:13;27.00;1.00
10417;DHT22;62605;49.432;8.680;2023-06-22T08:07:41;26.90;1.00
10417;DHT22;62605;49.432;8.680;2023-06-22T08:10:11;26.90;1.00
10417;DHT22;62605;49.432;8.680;2023-06-22T08:12:38;27.10;1.00
10417;DHT22;62605;49.432;8.680;2023-06-22T08:15:07;26.90;1.00
10417;DHT22;62605;49.432;8.680;2023-06-22T08:17:36;27.10;1.00
10417;DHT22;62605;49.432;8.680;2023-06-22T08:20:12;27.30;1.00
10417;DHT22;62605;49.432;8.680;2023-06-22T08:22:43;27.30;1.00
10417;DHT22;62605;49.432;8.680;2023-06-22T08:25:11;27.20;1.00
10417;DHT22;62605;49.432;8.680;2023-06-22T08:27:39;27.30;1.00
10417;DHT22;62605;49.432;8.680;2023-06-22T08:30:13;27.10;1.00
10417;DHT22;62605;49.432;8.680;2023-06-22T08:32:41;27.20;1.00
10417;DHT22;62605;49.432;8.680;2023-06-22T08:35:10;27.60;1.00
10417;DHT22;62605;49.432;8.680;2023-06-22T08:37:38;27.70;1.00
10417;DHT22;62605;49.432;8.680;2023-06-22T08:40:08;27.80;99.90
10417;DHT22;62605;49.432;8.680;2023-06-22T08:42:40;27.90;99.90
10417;DHT22;62605;49.432;8.680;2023-06-22T08:45:10;28.00;99.90
10417;DHT22;62605;49.432;8.680;2023-06-22T08:47:37;27.90;99.90
10417;DHT22;62605;49.432;8.680;2023-06-22T08:50:07;28.20;99.90
10417;DHT22;62605;49.432;8.680;2023-06-22T08:52:42;28.20;99.90
10417;DHT22;62605;49.432;8.680;2023-06-22T08:55:11;28.50;99.90
10417;DHT22;62605;49.432;8.680;2023-06-22T08:57:40;28.40;99.90
10417;DHT22;62605;49.432;8.680;2023-06-22T09:00:09;28.40;99.90
10417;DHT22;62605;49.432;8.680;2023-06-22T09:02:47;28.70;99.90
10417;DHT22;62605;49.432;8.680;2023-06-22T09:05:16;29.00;99.90
10417;DHT22;62605;49.432;8.680;2023-06-22T09:07:45;29.00;99.90
10417;DHT22;62605;49.432;8.680;2023-06-22T09:10:12;29.20;99.90
10417;DHT22;62605;49.432;8.680;2023-06-22T09:12:40;28.80;99.90
10417;DHT22;62605;49.432;8.680;2023-06-22T09:15:10;28.80;99.90
10417;DHT22;62605;49.432;8.680;2023-06-22T09:17:38;28.90;99.90
10417;DHT22;62605;49.432;8.680;2023-06-22T09:20:09;29.10;99.90
10417;DHT22;62605;49.432;8.680;2023-06-22T09:22:45;28.80;99.90
10417;DHT22;62605;49.432;8.680;2023-06-22T09:25:13;29.30;99.90
10417;DHT22;62605;49.432;8.680;2023-06-22T09:27:40;29.10;99.90
10417;DHT22;62605;49.432;8.680;2023-06-22T09:30:09;29.20;99.90
10417;DHT22;62605;49.432;8.680;2023-06-22T09:32:36;29.00;99.90
10417;DHT22;62605;49.432;8.680;2023-06-22T09:35:05;29.00;99.90
10417;DHT22;62605;49.432;8.680;2023-06-22T09:37:34;29.40;99.90
10417;DHT22;62605;49.432;8.680;2023-06-22T09:40:03;29.20;99.90
10417;DHT22;62605;49.432;8.680;2023-06-22T09:42:36;29.10;99.90
10417;DHT22;62605;49.432;8.680;2023-06-22T09:45:04;28.50;99.90
10417;DHT22;62605;49.432;8.680;2023-06-22T09:47:32;28.70;99.90
10417;DHT22;62605;49.432;8.680;2023-06-22T09:50:05;28.80;99.90
10417;DHT22;62605;49.432;8.680;2023-06-22T09:52:36;29.10;99.90
10417;DHT22;62605;49.432;8.680;2023-06-22T09:58:33;29.40;99.90
10417;DHT22;62605;49.432;8.680;2023-06-22T10:01:00;29.10;99.90
10417;DHT22;62605;49.432;8.680;2023-06-22T10:03:28;29.30;99.90
10417;DHT22;62605;49.432;8.680;2023-06-22T10:05:56;29.70;99.90
10417;DHT22;62605;49.432;8.680;2023-06-22T10:08:25;29.70;99.90
10417;DHT22;62605;49.432;8.680;2023-06-22T10:10:55;29.80;99.90
10417;DHT22;62605;49.432;8.680;2023-06-22T10:13:24;29.90;99.90
10417;DHT22;62605;49.432;8.680;2023-06-22T10:15:56;29.90;99.90
10417;DHT22;62605;49.432;8.680;2023-06-22T10:18:40;29.30;99.90
10417;DHT22;62605;49.432;8.680;2023-06-22T10:21:10;28.90;99.90
10417;DHT22;62605;49.432;8.680;2023-06-22T10:23:37;28.90;99.90
10417;DHT22;62605;49.432;8.680;2023-06-22T10:26:04;29.30;99.90
10417;DHT22;62605;49.432;8.680;2023-06-22T10:28:33;29.30;99.90
10417;DHT22;62605;49.432;8.680;2023-06-22T10:31:02;29.30;99.90
10417;DHT22;62605;49.432;8.680;2023-06-22T10:33:32;29.00;99.90
10417;DHT22;62605;49.432;8.680;2023-06-22T10:36:03;29.30;99.90
10417;DHT22;62605;49.432;8.680;2023-06-22T10:38:30;29.20;99.90
10417;DHT22;62605;49.432;8.680;2023-06-22T10:40:58;29.20;99.90
10417;DHT22;62605;49.432;8.680;2023-06-22T10:43:25;29.20;99.90
10417;DHT22;62605;49.432;8.680;2023-06-22T10:45:52;29.10;99.90
10417;DHT22;62605;49.432;8.680;2023-06-22T10:48:22;28.90;99.90
10417;DHT22;62605;49.432;8.680;2023-06-22T10:50:50;28.70;99.90
10417;DHT22;62605;49.432;8.680;2023-06-22T10:53:20;28.80;99.90
10417;DHT22;62605;49.432;8.680;2023-06-22T10:55:48;29.10;99.90
10417;DHT22;62605;49.432;8.680;2023-06-22T10:58:23;29.20;99.90
10417;DHT22;62605;49.432;8.680;2023-06-22T11:00:50;30.10;99.90
10417;DHT22;62605;49.432;8.680;2023-06-22T11:03:35;30.00;99.90
10417;DHT22;62605;49.432;8.680;2023-06-22T11:06:04;30.10;99.90
10417;DHT22;62605;49.432;8.680;2023-06-22T11:08:32;29.90;99.90
10417;DHT22;62605;49.432;8.680;2023-06-22T11:11:00;29.80;99.90
10417;DHT22;62605;49.432;8.680;2023-06-22T11:13:27;29.70;99.90
10417;DHT22;62605;49.432;8.680;2023-06-22T11:15:54;30.10;99.90
10417;DHT22;62605;49.432;8.680;2023-06-22T11:18:21;30.40;99.90
10417;DHT22;62605;49.432;8.680;2023-06-22T11:20:51;30.50;99.90
10417;DHT22;62605;49.432;8.680;2023-06-22T11:23:18;30.40;99.90
10417;DHT22;62605;49.432;8.680;2023-06-22T11:25:45;30.50;99.90
10417;DHT22;62605;49.432;8.680;2023-06-22T11:28:14;30.80;99.90
10417;DHT22;62605;49.432;8.680;2023-06-22T11:30:41;31.00;96.10
10417;DHT22;62605;49.432;8.680;2023-06-22T11:33:08;31.20;99.40
10417;DHT22;62605;49.432;8.680;2023-06-22T11:35:35;30.70;99.90
10417;DHT22;62605;49.432;8.680;2023-06-22T11:38:03;30.20;99.90
10417;DHT22;62605;49.432;8.680;2023-06-22T11:40:31;30.10;99.90
10417;DHT22;62605;49.432;8.680;2023-06-22T11:42:58;30.00;99.90
10417;DHT22;62605;49.432;8.680;2023-06-22T11:45:24;30.20;99.90
10417;DHT22;62605;49.432;8.680;2023-06-22T11:47:51;30.20;95.30
10417;DHT22;62605;49.432;8.680;2023-06-22T11:50:18;30.40;93.60
10417;DHT22;62605;49.432;8.680;2023-06-22T11:52:45;30.60;76.70
10417;DHT22;62605;49.432;8.680;2023-06-22T11:55:14;31.10;86.80
10417;DHT22;62605;49.432;8.680;2023-06-22T11:57:53;30.70;60.00
10417;DHT22;62605;49.432;8.680;2023-06-22T12:00:21;30.40;72.90
10417;DHT22;62605;49.432;8.680;2023-06-22T12:02:49;30.50;99.90
10417;DHT22;62605;49.432;8.680;2023-06-22T12:05:19;30.70;99.90
10417;DHT22;62605;49.432;8.680;2023-06-22T12:07:48;30.80;77.30
10417;DHT22;62605;49.432;8.680;2023-06-22T12:10:22;30.60;31.50
10417;DHT22;62605;49.432;8.680;2023-06-22T12:12:50;30.70;20.00
10417;DHT22;62605;49.432;8.680;2023-06-22T12:15:17;30.60;9.40
10417;DHT22;62605;49.432;8.680;2023-06-22T12:17:44;30.70;1.00
10417;DHT22;62605;49.432;8.680;2023-06-22T12:20:13;30.70;8.30
10417;DHT22;62605;49.432;8.680;2023-06-22T12:22:41;31.00;1.00
10417;DHT22;62605;49.432;8.680;2023-06-22T12:25:08;31.30;1.00
10417;DHT22;62605;49.432;8.680;2023-06-22T12:27:37;31.40;1.00
10417;DHT22;62605;49.432;8.680;2023-06-22T12:30:05;31.10;1.00
10417;DHT22;62605;49.432;8.680;2023-06-22T12:32:32;31.30;1.00
10417;DHT22;62605;49.432;8.680;2023-06-22T12:35:02;31.20;1.00
10417;DHT22;62605;49.432;8.680;2023-06-22T12:37:40;31.30;1.00
10417;DHT22;62605;49.432;8.680;2023-06-22T12:40:08;31.50;1.00
10417;DHT22;62605;49.432;8.680;2023-06-22T12:42:39;32.20;1.00
10417;DHT22;62605;49.432;8.680;2023-06-22T12:45:08;32.10;1.00
10417;DHT22;62605;49.432;8.680;2023-06-22T12:47:35;32.10;1.00
10417;DHT22;62605;49.432;8.680;2023-06-22T12:50:03;32.70;1.00
10417;DHT22;62605;49.432;8.680;2023-06-22T12:52:30;32.60;1.00
10417;DHT22;62605;49.432;8.680;2023-06-22T12:54:58;32.40;1.00
10417;DHT22;62605;49.432;8.680;2023-06-22T12:57:25;32.70;1.00
10417;DHT22;62605;49.432;8.680;2023-06-22T12:59:53;33.20;1.00
10417;DHT22;62605;49.432;8.680;2023-06-22T13:02:20;32.10;1.00
10417;DHT22;62605;49.432;8.680;2023-06-22T13:04:47;32.10;1.00
10417;DHT22;62605;49.432;8.680;2023-06-22T13:07:15;31.80;1.00
10417;DHT22;62605;49.432;8.680;2023-06-22T13:09:43;31.70;1.00
10417;DHT22;62605;49.432;8.680;2023-06-22T13:12:13;31.50;1.00
10417;DHT22;62605;49.432;8.680;2023-06-22T13:14:42;31.30;1.00
10417;DHT22;62605;49.432;8.680;2023-06-22T13:17:12;31.00;1.00
10417;DHT22;62605;49.432;8.680;2023-06-22T13:19:39;31.30;1.00
10417;DHT22;62605;49.432;8.680;2023-06-22T13:22:26;32.00;1.00
10417;DHT22;62605;49.432;8.680;2023-06-22T13:24:53;32.20;1.00
10417;DHT22;62605;49.432;8.680;2023-06-22T13:27:21;31.90;1.00
10417;DHT22;62605;49.432;8.680;2023-06-22T13:29:49;31.60;1.00
10417;DHT22;62605;49.432;8.680;2023-06-22T13:32:19;31.20;1.00
10417;DHT22;62605;49.432;8.680;2023-06-22T13:34:46;31.00;1.00
10417;DHT22;62605;49.432;8.680;2023-06-22T13:37:13;31.20;1.00
10417;DHT22;62605;49.432;8.680;2023-06-22T13:39:41;31.50;1.00
10417;DHT22;62605;49.432;8.680;2023-06-22T13:42:10;31.30;1.00
10417;DHT22;62605;49.432;8.680;2023-06-22T13:44:37;31.30;1.00
10417;DHT22;62605;49.432;8.680;2023-06-22T13:47:05;31.10;1.00
10417;DHT22;62605;49.432;8.680;2023-06-22T13:49:34;31.30;1.00
10417;DHT22;62605;49.432;8.680;2023-06-22T13:52:01;31.60;1.00
10417;DHT22;62605;49.432;8.680;2023-06-22T13:54:29;32.10;1.00
10417;DHT22;62605;49.432;8.680;2023-06-22T13:56:57;32.60;1.00
10417;DHT22;62605;49.432;8.680;2023-06-22T13:59:24;32.50;1.00
10417;DHT22;62605;49.432;8.680;2023-06-22T14:01:52;32.10;1.00
10417;DHT22;62605;49.432;8.680;2023-06-22T14:04:19;31.70;1.00
10417;DHT22;62605;49.432;8.680;2023-06-22T14:06:47;31.20;1.00
10417;DHT22;62605;49.432;8.680;2023-06-22T14:09:14;31.00;1.00
10417;DHT22;62605;49.432;8.680;2023-06-22T14:11:41;30.70;1.00
10417;DHT22;62605;49.432;8.680;2023-06-22T14:14:08;30.60;1.00
10417;DHT22;62605;49.432;8.680;2023-06-22T14:16:35;30.30;1.00
10417;DHT22;62605;49.432;8.680;2023-06-22T14:19:02;30.20;1.00
10417;DHT22;62605;49.432;8.680;2023-06-22T14:21:30;30.20;1.00
10417;DHT22;62605;49.432;8.680;2023-06-22T14:23:58;30.00;1.00
10417;DHT22;62605;49.432;8.680;2023-06-22T14:26:25;30.10;1.00
10417;DHT22;62605;49.432;8.680;2023-06-22T14:28:53;30.00;1.00
10417;DHT22;62605;49.432;8.680;2023-06-22T14:31:20;30.00;1.00
10417;DHT22;62605;49.432;8.680;2023-06-22T14:33:48;29.90;1.00
10417;DHT22;62605;49.432;8.680;2023-06-22T14:36:16;30.00;1.00
10417;DHT22;62605;49.432;8.680;2023-06-22T14:38:44;30.00;1.00
10417;DHT22;62605;49.432;8.680;2023-06-22T14:41:13;30.00;1.00
10417;DHT22;62605;49.432;8.680;2023-06-22T14:43:44;29.80;1.00
10417;DHT22;62605;49.432;8.680;2023-06-22T14:46:13;29.80;1.00
10417;DHT22;62605;49.432;8.680;2023-06-22T14:48:41;29.60;1.00
10417;DHT22;62605;49.432;8.680;2023-06-22T14:51:09;29.50;1.00
10417;DHT22;62605;49.432;8.680;2023-06-22T14:53:37;29.50;1.00
10417;DHT22;62605;49.432;8.680;2023-06-22T14:56:05;29.30;1.00
10417;DHT22;62605;49.432;8.680;2023-06-22T14:58:34;29.20;1.00
10417;DHT22;62605;49.432;8.680;2023-06-22T15:01:01;29.20;1.00
10417;DHT22;62605;49.432;8.680;2023-06-22T15:03:30;29.20;1.00
10417;DHT22;62605;49.432;8.680;2023-06-22T15:05:58;29.10;1.00
10417;DHT22;62605;49.432;8.680;2023-06-22T15:08:26;29.00;1.00
10417;DHT22;62605;49.432;8.680;2023-06-22T15:10:53;29.10;6.60
10417;DHT22;62605;49.432;8.680;2023-06-22T15:13:20;29.00;1.00
10417;DHT22;62605;49.432;8.680;2023-06-22T15:15:50;29.00;7.30
10417;DHT22;62605;49.432;8.680;2023-06-22T15:18:17;29.10;2.30
10417;DHT22;62605;49.432;8.680;2023-06-22T15:20:44;29.20;1.00
10417;DHT22;62605;49.432;8.680;2023-06-22T15:23:12;29.50;1.00
10417;DHT22;62605;49.432;8.680;2023-06-22T15:25:39;29.80;1.00
10417;DHT22;62605;49.432;8.680;2023-06-22T15:28:07;30.20;1.00
10417;DHT22;62605;49.432;8.680;2023-06-22T15:30:35;30.60;1.00
10417;DHT22;62605;49.432;8.680;2023-06-22T15:33:04;31.10;1.00
10417;DHT22;62605;49.432;8.680;2023-06-22T15:35:32;31.60;1.00
10417;DHT22;62605;49.432;8.680;2023-06-22T15:37:59;32.10;1.00
10417;DHT22;62605;49.432;8.680;2023-06-22T15:40:27;32.10;1.00
10417;DHT22;62605;49.432;8.680;2023-06-22T15:42:55;32.00;1.00
10417;DHT22;62605;49.432;8.680;2023-06-22T15:45:22;32.60;1.00
10417;DHT22;62605;49.432;8.680;2023-06-22T15:47:49;32.40;1.00
10417;DHT22;62605;49.432;8.680;2023-06-22T15:50:17;32.50;1.00
10417;DHT22;62605;49.432;8.680;2023-06-22T15:52:46;32.40;1.00
10417;DHT22;62605;49.432;8.680;2023-06-22T15:55:16;31.80;1.00
10417;DHT22;62605;49.432;8.680;2023-06-22T15:57:43;31.80;1.00
10417;DHT22;62605;49.432;8.680;2023-06-22T16:00:13;31.90;1.00
10417;DHT22;62605;49.432;8.680;2023-06-22T16:02:41;32.10;1.00
10417;DHT22;62605;49.432;8.680;2023-06-22T16:05:09;32.30;1.00
10417;DHT22;62605;49.432;8.680;2023-06-22T16:07:38;31.80;1.00
10417;DHT22;62605;49.432;8.680;2023-06-22T16:10:06;31.80;1.00
10417;DHT22;62605;49.432;8.680;2023-06-22T16:12:34;32.50;1.00
10417;DHT22;62605;49.432;8.680;2023-06-22T16:15:03;32.50;1.00
10417;DHT22;62605;49.432;8.680;2023-06-22T16:17:30;33.00;1.00
10417;DHT22;62605;49.432;8.680;2023-06-22T16:20:03;32.70;1.00
10417;DHT22;62605;49.432;8.680;2023-06-22T16:22:32;32.30;1.00
10417;DHT22;62605;49.432;8.680;2023-06-22T16:25:03;31.70;1.00
10417;DHT22;62605;49.432;8.680;2023-06-22T16:27:30;30.90;1.00
10417;DHT22;62605;49.432;8.680;2023-06-22T16:29:58;30.50;1.00
10417;DHT22;62605;49.432;8.680;2023-06-22T16:32:26;29.80;1.00
10417;DHT22;62605;49.432;8.680;2023-06-22T16:34:57;29.50;1.00
10417;DHT22;62605;49.432;8.680;2023-06-22T16:37:34;29.20;1.00
10417;DHT22;62605;49.432;8.680;2023-06-22T16:40:03;29.10;1.00
10417;DHT22;62605;49.432;8.680;2023-06-22T16:42:31;28.90;1.00
10417;DHT22;62605;49.432;8.680;2023-06-22T16:44:58;28.90;1.00